createdAt,value
2022-10-17T00:04:20.275Z,69.55
2022-10-17T00:09:23.271Z,69.75
2022-10-17T00:14:26.200Z,69.76
2022-10-17T00:19:29.102Z,69.61
2022-10-17T00:24:32.043Z,69.62
2022-10-17T00:29:34.991Z,69.51
2022-10-17T00:34:37.905Z,69.68
2022-10-17T00:39:40.800Z,69.61
2022-10-17T00:44:47.095Z,69.86
2022-10-17T00:49:50.533Z,70.46
2022-10-17T00:55:29.578Z,70.56
2022-10-17T01:00:32.787Z,70.58
2022-10-17T01:05:37.113Z,70.55
2022-10-17T01:11:02.627Z,70.33
2022-10-17T01:16:52.310Z,70.10
2022-10-17T01:22:04.077Z,70.25
2022-10-17T01:27:35.307Z,70.62
2022-10-17T01:32:57.863Z,70.96
2022-10-17T01:38:14.786Z,70.88
2022-10-17T01:43:30.126Z,70.83
2022-10-17T01:48:38.768Z,70.79
2022-10-17T01:54:06.919Z,70.83
2022-10-17T01:59:17.443Z,71.06
2022-10-17T02:04:20.609Z,71.13
2022-10-17T02:09:26.524Z,71.05
2022-10-17T02:14:45.060Z,70.85
2022-10-17T02:20:20.033Z,70.90
2022-10-17T02:26:04.903Z,70.66
2022-10-17T02:31:22.736Z,70.59
2022-10-17T02:36:46.123Z,70.48
2022-10-17T02:41:52.540Z,70.22
2022-10-17T02:47:16.147Z,70.23
2022-10-17T02:52:31.253Z,69.87
2022-10-17T02:57:41.061Z,70.09
2022-10-17T03:02:48.509Z,70.36
2022-10-17T03:07:52.372Z,69.98
2022-10-17T03:12:55.982Z,70.00
2022-10-17T03:17:58.886Z,69.94
2022-10-17T03:23:02.101Z,70.01
2022-10-17T03:28:05.688Z,69.95
2022-10-17T03:33:08.591Z,69.91
2022-10-17T03:38:11.463Z,70.27
2022-10-17T03:43:14.353Z,70.42
2022-10-17T03:48:17.229Z,70.39
2022-10-17T03:53:20.177Z,70.24
2022-10-17T03:58:23.305Z,70.07
2022-10-17T04:03:26.230Z,70.33
2022-10-17T04:08:29.981Z,70.01
2022-10-17T04:13:33.981Z,70.17
2022-10-17T04:18:36.924Z,70.42
2022-10-17T04:23:40.244Z,70.31
2022-10-17T04:28:43.138Z,70.49
2022-10-17T04:33:50.864Z,70.18
2022-10-17T04:38:54.013Z,69.74
2022-10-17T04:43:56.897Z,70.22
2022-10-17T04:48:59.797Z,70.03
2022-10-17T04:54:02.722Z,69.81
2022-10-17T04:59:05.688Z,69.73
2022-10-17T05:04:08.596Z,69.95
2022-10-17T05:09:11.502Z,70.67
2022-10-17T05:14:15.575Z,70.87
2022-10-17T05:19:18.667Z,71.34
2022-10-17T05:24:21.847Z,71.74
2022-10-17T05:29:24.754Z,71.89
2022-10-17T05:34:27.716Z,71.96
2022-10-17T05:39:30.633Z,72.39
2022-10-17T05:44:33.702Z,72.50
2022-10-17T05:49:52.626Z,72.81
2022-10-17T05:54:55.657Z,72.56
2022-10-17T05:59:58.566Z,72.47
2022-10-17T06:05:01.512Z,72.37
2022-10-17T06:10:04.981Z,72.65
2022-10-17T06:15:08.549Z,72.99
2022-10-17T07:29:11.749Z,81.22
2022-10-17T07:34:14.792Z,79.76
2022-10-17T07:39:17.812Z,79.00
2022-10-17T07:44:21.060Z,78.58
2022-10-17T07:49:24.034Z,77.95
2022-10-17T07:54:26.935Z,77.49
2022-10-17T07:59:29.843Z,76.78
2022-10-17T08:04:34.777Z,76.10
2022-10-17T08:09:37.804Z,75.74
2022-10-17T08:14:42.538Z,75.03
2022-10-17T08:19:45.431Z,74.79
2022-10-17T08:24:48.343Z,74.28
2022-10-17T08:29:54.825Z,73.69
2022-10-17T08:34:57.748Z,73.12
2022-10-17T08:40:00.681Z,72.98
2022-10-17T08:45:17.057Z,72.59
2022-10-17T08:50:36.833Z,72.70
2022-10-17T08:55:51.680Z,72.66
2022-10-17T09:01:24.233Z,72.39
2022-10-17T09:06:45.211Z,71.91
2022-10-17T09:12:24.783Z,71.68
2022-10-17T09:17:54.944Z,71.38
2022-10-17T09:23:11.865Z,70.89
2022-10-17T09:28:31.300Z,70.60
2022-10-17T09:33:54.234Z,70.62
2022-10-17T09:39:02.002Z,70.59
2022-10-17T09:44:23.052Z,70.77
2022-10-17T09:49:39.473Z,70.46
2022-10-17T09:55:15.446Z,70.46
2022-10-17T10:00:28.038Z,69.96
2022-10-17T10:05:31.196Z,68.98
2022-10-17T10:10:34.278Z,67.54
2022-10-17T10:15:46.602Z,66.98
2022-10-17T10:21:04.467Z,66.43
2022-10-17T10:26:25.933Z,66.12
2022-10-17T10:31:37.083Z,65.81
2022-10-17T10:36:52.918Z,65.35
2022-10-17T10:41:56.007Z,64.13
2022-10-17T10:47:22.740Z,64.47
2022-10-17T10:53:07.930Z,63.68
2022-10-17T10:58:48.670Z,62.88
2022-10-17T11:04:49.212Z,62.74
2022-10-17T11:10:47.738Z,62.13
2022-10-17T11:16:18.070Z,61.89
2022-10-17T11:21:48.604Z,62.16
2022-10-17T11:27:06.645Z,61.38
2022-10-17T11:32:25.089Z,61.46
2022-10-17T11:37:34.674Z,61.12
2022-10-17T11:43:20.263Z,61.08
2022-10-17T11:48:39.147Z,60.56
2022-10-17T11:53:51.219Z,60.99
2022-10-17T12:58:28.476Z,60.48
2022-10-17T13:03:44.348Z,60.12
2022-10-17T13:09:03.577Z,59.88
2022-10-17T13:14:14.757Z,59.93
2022-10-17T13:19:25.462Z,59.70
2022-10-17T13:24:33.049Z,58.63
2022-10-17T13:29:44.475Z,58.55
2022-10-17T13:35:04.392Z,58.26
2022-10-17T13:46:25.383Z,58.25
2022-10-17T13:51:28.703Z,58.53
2022-10-17T13:56:32.401Z,58.56
2022-10-17T14:01:38.325Z,58.53
2022-10-17T14:06:51.134Z,58.41
2022-10-17T14:12:08.638Z,59.16
2022-10-17T14:17:30.897Z,59.60
2022-10-17T14:22:38.562Z,59.90
2022-10-17T14:28:14.137Z,60.14
2022-10-17T14:33:26.341Z,60.46
2022-10-17T14:38:30.621Z,61.09
2022-10-17T14:43:33.556Z,60.81
2022-10-17T14:48:36.656Z,60.95
2022-10-17T14:54:21.562Z,61.22
2022-10-17T14:59:52.194Z,61.49
2022-10-17T15:04:48.906Z,61.92
2022-10-17T15:09:54.131Z,62.32
2022-10-17T15:14:57.354Z,62.65
2022-10-17T15:20:00.726Z,62.86
2022-10-17T15:25:04.017Z,63.10
2022-10-17T15:30:29.227Z,63.40
2022-10-17T15:35:32.248Z,63.70
2022-10-17T15:40:35.186Z,63.61
2022-10-17T15:45:38.139Z,63.81
2022-10-17T15:50:41.049Z,63.99
2022-10-17T15:55:44.030Z,64.10
2022-10-17T16:00:48.007Z,64.29
2022-10-17T16:05:50.940Z,64.81
2022-10-17T16:10:54.077Z,64.94
2022-10-17T16:15:57.922Z,65.20
2022-10-17T16:21:04.137Z,65.68
2022-10-17T16:26:08.278Z,66.01
2022-10-17T16:31:24.017Z,66.15
2022-10-17T16:36:27.001Z,66.32
2022-10-17T16:41:33.971Z,66.17
2022-10-17T16:46:38.257Z,66.20
2022-10-17T16:51:41.166Z,66.29
2022-10-17T16:56:44.107Z,66.36
2022-10-17T17:01:47.003Z,66.56
2022-10-17T17:06:50.000Z,66.72
2022-10-17T17:11:52.917Z,66.92
2022-10-17T17:16:55.869Z,66.87
2022-10-17T17:21:58.809Z,67.40
2022-10-17T17:27:01.910Z,67.51
2022-10-17T17:32:05.092Z,67.41
2022-10-17T17:37:08.035Z,67.76
2022-10-17T17:42:10.965Z,68.01
2022-10-17T17:47:13.881Z,68.38
2022-10-17T17:52:16.939Z,68.78
2022-10-17T17:57:19.840Z,68.96
2022-10-17T18:02:22.758Z,69.03
2022-10-17T18:07:25.702Z,69.06
2022-10-17T18:12:30.455Z,69.15
2022-10-17T18:17:34.644Z,69.43
2022-10-17T18:22:37.544Z,69.64
2022-10-17T18:27:40.447Z,69.74
2022-10-17T18:32:43.405Z,69.95
2022-10-17T18:37:46.409Z,69.74
2022-10-17T18:42:49.330Z,69.58
2022-10-17T18:47:54.887Z,69.31
2022-10-17T18:52:57.780Z,69.03
2022-10-17T18:58:00.783Z,68.79
2022-10-17T19:03:05.020Z,68.79
2022-10-17T19:08:07.973Z,68.89
2022-10-17T19:13:11.934Z,68.73
2022-10-17T19:18:14.897Z,68.83
2022-10-17T19:23:17.791Z,68.60
2022-10-17T19:28:20.710Z,68.58
2022-10-17T19:33:23.992Z,68.48
2022-10-17T19:38:26.953Z,68.86
2022-10-17T19:43:29.858Z,69.25
2022-10-17T19:48:35.535Z,69.87
2022-10-17T19:53:39.010Z,70.17
2022-10-17T19:58:45.641Z,70.39
2022-10-17T20:03:49.515Z,70.55
2022-10-17T20:08:53.601Z,70.23
2022-10-17T20:13:57.554Z,70.10
2022-10-17T20:19:12.788Z,69.87
2022-10-17T20:24:17.188Z,69.87
2022-10-17T20:29:21.543Z,69.88
2022-10-17T20:34:25.091Z,70.13
2022-10-17T20:39:28.553Z,70.53
2022-10-17T20:44:31.582Z,71.05
2022-10-17T20:49:34.603Z,71.27
2022-10-17T20:54:37.768Z,71.71
2022-10-17T20:59:40.793Z,72.14
2022-10-17T21:04:46.767Z,72.60
2022-10-17T21:09:50.036Z,72.80
2022-10-17T21:14:52.956Z,72.55
2022-10-17T21:19:56.125Z,72.17
2022-10-17T21:24:59.056Z,72.08
2022-10-17T21:30:02.539Z,72.09
2022-10-17T21:35:06.316Z,72.35
2022-10-17T21:40:10.278Z,72.69
2022-10-17T21:45:15.699Z,72.98
2022-10-17T21:50:19.065Z,73.15
2022-10-17T21:55:21.937Z,73.42
2022-10-17T22:00:24.942Z,73.44
2022-10-17T22:05:27.905Z,73.42
2022-10-17T22:10:30.946Z,72.99
2022-10-17T22:15:33.937Z,72.96
2022-10-17T22:20:36.963Z,72.36
2022-10-17T22:25:39.863Z,72.04
2022-10-17T22:30:42.794Z,72.27
2022-10-17T22:35:46.590Z,72.82
2022-10-17T22:40:49.499Z,73.03
2022-10-17T22:45:58.296Z,73.22
2022-10-17T22:51:02.558Z,73.11
2022-10-17T22:56:10.818Z,73.11
2022-10-17T23:01:18.068Z,73.42
2022-10-17T23:06:21.650Z,73.64
2022-10-17T23:11:24.708Z,73.74
2022-10-17T23:16:27.670Z,73.23
2022-10-17T23:21:30.571Z,73.01
2022-10-17T23:26:33.508Z,72.75
2022-10-17T23:31:36.472Z,72.53
2022-10-17T23:36:39.508Z,72.43
2022-10-17T23:41:42.437Z,72.27
2022-10-17T23:46:45.372Z,72.24
2022-10-17T23:51:48.283Z,71.80
2022-10-17T23:56:51.198Z,71.29
